createdAt,value
2023-04-02T00:00:04.317Z,3.78
2023-04-02T00:01:45.689Z,3.69
2023-04-02T00:03:27.113Z,3.54
2023-04-02T00:05:08.504Z,3.47
2023-04-02T00:06:49.789Z,3.68
2023-04-02T00:08:31.107Z,3.95
2023-04-02T00:10:12.410Z,3.60
2023-04-02T00:11:53.710Z,3.84
2023-04-02T00:13:35.036Z,4.12
2023-04-02T00:15:16.355Z,3.53
2023-04-02T00:16:57.641Z,2.78
2023-04-02T00:18:38.948Z,2.57
2023-04-02T00:20:20.238Z,2.74
2023-04-02T00:22:01.549Z,2.82
2023-04-02T00:23:42.844Z,3.09
2023-04-02T00:25:24.136Z,3.14
2023-04-02T00:27:05.450Z,3.20
2023-04-02T00:28:46.809Z,3.57
2023-04-02T00:30:28.172Z,3.72
2023-04-02T00:32:09.508Z,3.63
2023-04-02T00:33:50.830Z,3.33
2023-04-02T00:35:32.149Z,3.17
2023-04-02T00:37:13.474Z,2.66
2023-04-02T00:38:54.749Z,2.29
2023-04-02T00:40:36.019Z,2.01
2023-04-02T00:42:17.323Z,1.79
2023-04-02T00:43:58.579Z,1.42
2023-04-02T00:45:39.866Z,1.60
2023-04-02T00:47:21.276Z,1.96
2023-04-02T00:49:02.569Z,2.15
2023-04-02T00:50:43.883Z,2.51
2023-04-02T00:52:25.198Z,2.09
2023-04-02T00:54:06.522Z,1.97
2023-04-02T00:55:47.825Z,2.23
2023-04-02T00:57:29.153Z,2.04
2023-04-02T00:59:10.506Z,2.20
2023-04-02T01:00:51.781Z,1.80
2023-04-02T01:02:33.212Z,1.70
2023-04-02T01:04:14.766Z,2.02
2023-04-02T01:05:56.169Z,2.57
2023-04-02T01:07:37.479Z,2.82
2023-04-02T01:09:18.805Z,3.08
2023-04-02T01:11:00.112Z,3.04
2023-04-02T01:12:41.417Z,3.20
2023-04-02T01:14:22.726Z,3.42
2023-04-02T01:16:04.035Z,3.49
2023-04-02T01:17:45.407Z,2.96
2023-04-02T01:19:26.730Z,3.34
2023-04-02T01:21:08.030Z,3.46
2023-04-02T01:22:49.385Z,3.64
2023-04-02T01:24:30.788Z,3.82
2023-04-02T01:26:12.088Z,3.86
2023-04-02T01:27:53.391Z,3.66
2023-04-02T01:29:34.711Z,3.64
2023-04-02T01:31:16.043Z,3.77
2023-04-02T01:32:57.413Z,3.68
2023-04-02T01:34:38.782Z,3.70
2023-04-02T01:36:20.202Z,3.64
2023-04-02T01:38:01.553Z,3.28
2023-04-02T01:39:42.940Z,2.92
2023-04-02T01:41:24.225Z,2.23
2023-04-02T01:43:05.592Z,2.32
2023-04-02T01:44:46.945Z,2.43
2023-04-02T01:46:28.324Z,2.65
2023-04-02T01:48:09.693Z,2.90
2023-04-02T01:49:51.036Z,3.09
2023-04-02T01:51:32.390Z,3.30
2023-04-02T01:53:13.683Z,3.33
2023-04-02T01:54:55.019Z,3.41
2023-04-02T01:56:36.356Z,3.08
2023-04-02T01:58:17.680Z,3.16
2023-04-02T01:59:59.013Z,3.21
2023-04-02T02:01:40.341Z,3.42
2023-04-02T02:03:21.801Z,3.62
2023-04-02T02:05:03.209Z,3.79
2023-04-02T02:06:44.603Z,4.02
2023-04-02T02:08:25.911Z,4.00
2023-04-02T02:10:07.222Z,3.78
2023-04-02T02:11:48.514Z,3.26
2023-04-02T02:13:29.800Z,2.88
2023-04-02T02:15:11.067Z,2.33
2023-04-02T02:16:52.401Z,2.15
2023-04-02T02:18:33.671Z,2.02
2023-04-02T02:20:14.971Z,1.93
2023-04-02T02:21:56.297Z,2.09
2023-04-02T02:23:37.569Z,1.97
2023-04-02T02:25:18.832Z,1.79
2023-04-02T02:27:00.154Z,1.92
2023-04-02T02:28:41.422Z,2.30
2023-04-02T02:30:22.687Z,2.38
2023-04-02T02:32:04.065Z,2.57
2023-04-02T02:33:45.397Z,2.66
2023-04-02T02:35:26.729Z,2.76
2023-04-02T02:37:08.058Z,2.60
2023-04-02T02:38:49.422Z,2.61
2023-04-02T02:40:30.732Z,2.91
2023-04-02T02:42:12.040Z,2.98
2023-04-02T02:43:53.365Z,2.74
2023-04-02T02:45:34.805Z,1.99
2023-04-02T02:47:16.209Z,1.74
2023-04-02T02:48:57.470Z,1.47
2023-04-02T02:50:38.760Z,1.56
2023-04-02T02:52:20.050Z,1.22
2023-04-02T02:54:01.325Z,0.99
2023-04-02T02:55:42.602Z,1.08
2023-04-02T02:57:23.985Z,1.06
2023-04-02T02:59:05.320Z,1.13
2023-04-02T03:00:46.642Z,1.35
2023-04-02T03:02:28.012Z,1.51
2023-04-02T03:04:09.425Z,1.68
2023-04-02T03:05:50.829Z,2.00
2023-04-02T03:07:32.087Z,2.40
2023-04-02T03:09:13.447Z,2.36
2023-04-02T03:10:54.730Z,2.35
2023-04-02T03:12:36.150Z,2.39
2023-04-02T03:14:17.425Z,2.00
2023-04-02T03:15:58.731Z,1.89
2023-04-02T03:17:40.095Z,1.78
2023-04-02T03:19:21.434Z,1.84
2023-04-02T03:21:02.739Z,2.11
2023-04-02T03:22:44.046Z,2.40
2023-04-02T03:24:25.337Z,2.43
2023-04-02T03:26:06.648Z,1.91
2023-04-02T03:27:47.948Z,1.57
2023-04-02T03:29:29.226Z,1.25
2023-04-02T03:31:10.610Z,1.12
2023-04-02T03:32:52.038Z,1.19
2023-04-02T03:34:33.368Z,1.14
2023-04-02T03:36:14.679Z,1.19
2023-04-02T03:37:56.029Z,1.28
2023-04-02T03:39:37.368Z,1.65
2023-04-02T03:41:18.654Z,1.86
2023-04-02T03:42:59.998Z,2.16
2023-04-02T03:44:41.300Z,1.96
2023-04-02T03:46:22.648Z,1.80
2023-04-02T03:48:03.982Z,2.04
2023-04-02T03:49:45.273Z,1.66
2023-04-02T03:51:26.593Z,1.79
2023-04-02T03:53:07.888Z,2.14
2023-04-02T03:54:53.197Z,1.85
2023-04-02T03:56:35.557Z,1.79
2023-04-02T03:58:16.883Z,0.83
2023-04-02T03:59:58.178Z,0.54
2023-04-02T04:01:39.612Z,0.88
2023-04-02T04:03:20.944Z,0.76
2023-04-02T04:05:02.251Z,0.48
2023-04-02T04:06:43.524Z,0.44
2023-04-02T04:08:24.838Z,0.23
2023-04-02T04:10:06.143Z,0.26
2023-04-02T04:11:47.464Z,0.29
2023-04-02T04:13:28.795Z,0.20
2023-04-02T04:15:10.067Z,-0.21
2023-04-02T04:16:51.423Z,-0.01
2023-04-02T04:18:32.754Z,-0.21
2023-04-02T04:20:14.049Z,-0.46
2023-04-02T04:21:55.384Z,-0.20
2023-04-02T04:23:36.664Z,0.20
2023-04-02T04:25:17.931Z,0.17
2023-04-02T04:26:59.259Z,0.34
2023-04-02T04:28:40.581Z,0.55
2023-04-02T04:30:21.888Z,0.39
2023-04-02T04:32:03.219Z,0.46
2023-04-02T04:33:44.540Z,0.84
2023-04-02T04:35:25.877Z,1.02
2023-04-02T04:37:07.218Z,1.17
2023-04-02T04:38:48.512Z,1.37
2023-04-02T04:40:29.812Z,1.06
2023-04-02T04:42:11.096Z,0.98
2023-04-02T04:43:52.384Z,1.24
2023-04-02T04:45:33.992Z,1.23
2023-04-02T04:47:15.458Z,0.74
2023-04-02T04:48:56.761Z,0.57
2023-04-02T04:50:38.131Z,0.83
2023-04-02T04:52:19.495Z,1.07
2023-04-02T04:54:00.817Z,0.77
2023-04-02T04:55:42.136Z,0.70
2023-04-02T04:57:23.493Z,1.04
2023-04-02T04:59:04.861Z,1.46
2023-04-02T05:00:46.198Z,1.70
2023-04-02T05:02:27.505Z,1.49
2023-04-02T05:04:08.819Z,1.61
2023-04-02T05:05:50.181Z,1.68
2023-04-02T05:07:31.534Z,1.54
2023-04-02T05:09:12.835Z,1.60
2023-04-02T05:10:54.221Z,1.97
2023-04-02T05:12:35.498Z,1.98
2023-04-02T05:14:16.764Z,1.35
2023-04-02T05:15:59.464Z,1.39
2023-04-02T05:17:42.464Z,0.50
2023-04-02T05:19:23.811Z,0.75
2023-04-02T05:21:05.121Z,0.58
2023-04-02T05:22:46.429Z,0.21
2023-04-02T05:24:27.727Z,0.14
2023-04-02T05:26:09.055Z,-0.37
2023-04-02T05:27:50.332Z,-0.04
2023-04-02T05:29:31.612Z,-0.12
2023-04-02T05:31:13.035Z,-0.46
2023-04-02T05:32:54.420Z,-0.63
2023-04-02T05:34:35.723Z,-1.08
2023-04-02T05:36:17.059Z,-1.36
2023-04-02T05:37:58.387Z,-1.52
2023-04-02T05:39:39.693Z,-1.63
2023-04-02T05:41:21.022Z,-1.93
2023-04-02T05:43:02.340Z,-1.94
2023-04-02T05:44:43.608Z,-2.05
2023-04-02T05:46:24.954Z,-2.19
2023-04-02T05:48:06.295Z,-1.62
2023-04-02T05:49:47.636Z,-1.72
2023-04-02T05:51:28.957Z,-1.78
2023-04-02T05:53:10.234Z,-1.61
2023-04-02T05:54:51.517Z,-1.49
2023-04-02T05:56:32.829Z,-1.69
2023-04-02T05:58:34.483Z,-1.70
2023-04-02T06:00:15.385Z,-1.95
2023-04-02T06:01:56.719Z,-1.99
2023-04-02T06:03:38.151Z,-2.40
2023-04-02T06:05:19.441Z,-2.33
2023-04-02T06:07:00.756Z,-2.40
2023-04-02T06:08:42.084Z,-2.26
2023-04-02T06:10:24.744Z,-2.14
2023-04-02T06:12:06.341Z,-1.57
2023-04-02T06:13:47.669Z,-1.72
2023-04-02T06:15:28.937Z,-1.80
2023-04-02T06:17:10.220Z,-1.54
2023-04-02T06:18:51.512Z,-0.95
2023-04-02T06:20:32.815Z,-0.98
2023-04-02T06:22:14.101Z,-0.91
2023-04-02T06:23:55.392Z,-0.62
2023-04-02T06:25:36.897Z,-0.49
2023-04-02T06:27:18.410Z,-0.01
2023-04-02T06:28:59.725Z,-0.29
2023-04-02T06:30:41.027Z,-0.50
2023-04-02T06:32:22.393Z,-0.06
2023-04-02T06:34:03.747Z,0.09
2023-04-02T06:35:45.060Z,0.43
2023-04-02T06:37:26.362Z,0.71
2023-04-02T06:39:07.674Z,0.82
2023-04-02T06:40:49.013Z,1.10
2023-04-02T06:42:30.304Z,1.11
2023-04-02T06:44:11.648Z,0.60
2023-04-02T06:45:53.031Z,0.98
2023-04-02T06:47:34.379Z,-0.06
2023-04-02T06:49:15.751Z,-0.67
2023-04-02T06:50:57.092Z,-0.88
2023-04-02T06:52:38.472Z,-0.68
2023-04-02T06:54:19.814Z,-0.75
2023-04-02T06:56:01.101Z,-0.41
2023-04-02T06:57:43.066Z,0.02
2023-04-02T06:59:24.433Z,0.09
2023-04-02T07:01:05.820Z,-0.31
2023-04-02T07:02:47.164Z,-0.46
2023-04-02T07:04:28.572Z,-0.27
2023-04-02T07:06:09.899Z,-1.02
2023-04-02T07:07:51.195Z,-1.02
2023-04-02T07:09:32.517Z,-0.78
2023-04-02T07:11:13.857Z,-0.83
2023-04-02T07:12:55.143Z,-0.54
2023-04-02T07:14:36.466Z,-0.29
2023-04-02T07:16:17.839Z,0.06
2023-04-02T07:17:59.465Z,0.03
2023-04-02T07:19:40.770Z,-0.12
2023-04-02T07:21:22.111Z,0.06
2023-04-02T07:23:03.465Z,-0.46
2023-04-02T07:24:44.768Z,-0.58
2023-04-02T07:26:26.096Z,-0.40
2023-04-02T07:28:07.503Z,-0.20
2023-04-02T07:29:48.825Z,-0.09
2023-04-02T07:31:30.178Z,-0.30
2023-04-02T07:33:11.502Z,0.02
2023-04-02T07:34:52.852Z,0.26
2023-04-02T07:36:34.312Z,0.32
2023-04-02T07:38:15.590Z,0.75
2023-04-02T07:39:56.896Z,1.02
2023-04-02T07:41:38.200Z,1.04
2023-04-02T07:43:19.481Z,0.95
2023-04-02T07:45:00.780Z,0.69
2023-04-02T07:46:42.260Z,0.90
2023-04-02T07:48:23.743Z,1.11
2023-04-02T07:50:05.004Z,0.97
2023-04-02T07:51:46.370Z,0.97
2023-04-02T07:53:27.641Z,0.64
2023-04-02T07:55:08.904Z,0.09
2023-04-02T07:56:50.274Z,0.14
2023-04-02T07:58:31.595Z,0.29
2023-04-02T08:00:12.911Z,0.64
2023-04-02T08:01:54.256Z,1.60
2023-04-02T08:03:35.621Z,1.31
2023-04-02T08:05:17.025Z,1.91
2023-04-02T08:06:58.314Z,2.09
2023-04-02T08:08:39.622Z,3.02
2023-04-02T08:10:20.918Z,3.42
2023-04-02T08:12:02.254Z,3.45
2023-04-02T08:13:43.569Z,3.32
2023-04-02T08:15:24.866Z,4.11
2023-04-02T08:17:06.181Z,4.39
2023-04-02T08:18:47.523Z,4.80
2023-04-02T08:20:28.913Z,5.03
2023-04-02T08:22:10.220Z,5.14
2023-04-02T08:23:51.522Z,5.94
2023-04-02T08:25:33.076Z,6.92
2023-04-02T08:27:14.646Z,7.40
2023-04-02T08:28:56.015Z,8.24
2023-04-02T08:30:37.325Z,8.81
2023-04-02T08:32:18.660Z,8.46
2023-04-02T08:33:59.975Z,8.93
2023-04-02T08:35:41.303Z,8.82
2023-04-02T08:37:22.625Z,8.88
2023-04-02T08:39:03.935Z,9.66
2023-04-02T08:40:45.226Z,10.29
2023-04-02T08:42:26.496Z,10.77
2023-04-02T08:44:07.789Z,11.43
2023-04-02T08:45:49.142Z,11.76
2023-04-02T08:47:30.586Z,12.07
2023-04-02T08:49:11.917Z,12.27
2023-04-02T08:50:53.202Z,11.39
2023-04-02T08:52:34.572Z,10.72
2023-04-02T08:54:15.908Z,10.81
2023-04-02T08:55:57.240Z,11.27
2023-04-02T08:57:38.573Z,11.76
2023-04-02T08:59:19.911Z,12.23
2023-04-02T09:01:01.209Z,12.58
2023-04-02T09:02:42.550Z,12.65
2023-04-02T09:04:24.033Z,12.53
2023-04-02T09:06:05.430Z,12.42
2023-04-02T09:07:46.713Z,12.67
2023-04-02T09:09:28.080Z,11.35
2023-04-02T09:11:09.407Z,10.09
2023-04-02T09:12:50.752Z,9.80
2023-04-02T09:14:32.059Z,10.81
2023-04-02T09:16:13.430Z,11.46
2023-04-02T09:17:55.397Z,11.35
2023-04-02T09:19:37.988Z,10.93
2023-04-02T09:21:19.292Z,10.16
2023-04-02T09:23:00.578Z,10.92
2023-04-02T09:24:41.889Z,11.19
2023-04-02T09:26:23.198Z,11.29
2023-04-02T09:28:04.485Z,12.10
2023-04-02T09:29:45.813Z,11.85
2023-04-02T09:31:27.159Z,12.14
2023-04-02T09:33:08.504Z,12.46
2023-04-02T09:34:49.856Z,11.48
2023-04-02T09:36:31.143Z,11.00
2023-04-02T09:38:12.531Z,11.37
2023-04-02T09:39:53.883Z,12.13
2023-04-02T09:41:36.702Z,12.68
2023-04-02T09:43:18.457Z,12.61
2023-04-02T09:44:59.739Z,12.11
2023-04-02T09:46:41.093Z,12.61
2023-04-02T09:48:22.424Z,12.05
2023-04-02T09:50:03.719Z,11.51
2023-04-02T09:51:44.985Z,10.84
2023-04-02T09:53:26.327Z,10.73
2023-04-02T09:55:07.645Z,11.73
2023-04-02T09:56:48.951Z,10.16
2023-04-02T09:58:30.236Z,10.03
2023-04-02T10:00:21.837Z,9.05
2023-04-02T10:02:12.425Z,8.27
2023-04-02T10:03:53.825Z,6.99
2023-04-02T10:07:19.367Z,6.95
2023-04-02T10:09:00.664Z,7.31
2023-04-02T10:10:41.969Z,7.90
2023-04-02T10:12:23.286Z,8.16
2023-04-02T10:14:04.601Z,8.18
2023-04-02T10:15:45.894Z,8.17
2023-04-02T10:17:27.189Z,9.34
2023-04-02T10:19:08.513Z,9.40
2023-04-02T10:20:51.491Z,9.77
2023-04-02T10:22:32.970Z,9.28
2023-04-02T10:24:14.306Z,9.24
2023-04-02T10:25:55.601Z,10.78
2023-04-02T10:27:36.891Z,10.35
2023-04-02T10:29:18.188Z,10.11
2023-04-02T10:30:59.533Z,9.96
2023-04-02T10:32:41.191Z,11.51
2023-04-02T10:34:22.579Z,12.66
2023-04-02T10:36:03.882Z,13.10
2023-04-02T10:37:45.204Z,13.88
2023-04-02T10:39:26.502Z,14.29
2023-04-02T10:41:07.811Z,14.50
2023-04-02T10:42:49.155Z,14.51
2023-04-02T10:44:30.456Z,15.21
2023-04-02T10:46:11.850Z,15.28
2023-04-02T10:47:53.314Z,14.94
2023-04-02T10:49:34.739Z,15.12
2023-04-02T10:51:16.082Z,14.34
2023-04-02T10:52:57.380Z,12.82
2023-04-02T10:54:38.701Z,11.16
2023-04-02T10:56:19.999Z,9.89
2023-04-02T10:58:01.316Z,10.94
2023-04-02T10:59:42.704Z,10.24
2023-04-02T11:01:24.599Z,10.17
2023-04-02T11:03:06.079Z,9.26
2023-04-02T11:04:48.707Z,8.84
2023-04-02T11:06:30.629Z,8.19
2023-04-02T11:08:11.912Z,8.75
2023-04-02T11:09:53.231Z,8.55
2023-04-02T11:11:34.611Z,8.54
2023-04-02T11:13:15.906Z,8.72
2023-04-02T11:14:57.271Z,9.47
2023-04-02T11:16:41.779Z,10.00
2023-04-02T11:18:25.479Z,10.60
2023-04-02T11:20:07.004Z,10.45
2023-04-02T11:21:57.772Z,10.12
2023-04-02T11:23:40.438Z,9.63
2023-04-02T11:25:21.756Z,9.85
2023-04-02T11:27:03.088Z,9.41
2023-04-02T11:28:44.376Z,9.73
2023-04-02T11:30:25.667Z,9.80
2023-04-02T11:32:06.969Z,9.54
2023-04-02T11:33:50.007Z,9.63
2023-04-02T11:35:31.490Z,9.62
2023-04-02T11:37:12.812Z,9.37
2023-04-02T11:38:57.593Z,9.67
2023-04-02T11:40:43.116Z,9.70
2023-04-02T11:42:24.415Z,10.06
2023-04-02T11:44:05.717Z,9.83
2023-04-02T11:45:52.848Z,10.23
2023-04-02T11:47:34.895Z,10.17
2023-04-02T11:49:16.274Z,10.48
2023-04-02T11:50:57.600Z,10.37
2023-04-02T11:52:39.124Z,10.39
2023-04-02T11:54:20.439Z,10.58
2023-04-02T11:56:01.742Z,10.41
2023-04-02T11:57:43.117Z,10.37
2023-04-02T11:59:24.425Z,10.55
2023-04-02T12:01:06.002Z,10.88
2023-04-02T12:02:47.694Z,11.15
2023-04-02T12:04:29.035Z,10.87
2023-04-02T12:06:10.394Z,11.04
2023-04-02T12:07:52.573Z,10.93
2023-04-02T12:09:34.075Z,11.13
2023-04-02T12:11:15.444Z,10.67
2023-04-02T12:12:56.733Z,10.50
2023-04-02T12:14:38.071Z,10.89
2023-04-02T12:16:19.890Z,10.68
2023-04-02T12:18:01.367Z,10.75
2023-04-02T12:19:42.756Z,10.71
2023-04-02T12:21:24.138Z,11.10
2023-04-02T12:23:05.432Z,11.40
2023-04-02T12:24:46.736Z,11.41
2023-04-02T12:26:28.035Z,11.36
2023-04-02T12:28:09.474Z,11.02
2023-04-02T12:29:50.848Z,11.22
2023-04-02T12:31:32.150Z,11.10
2023-04-02T12:33:13.508Z,10.95
2023-04-02T12:34:54.872Z,10.17
2023-04-02T12:36:36.178Z,10.26
2023-04-02T12:38:17.459Z,9.75
2023-04-02T12:39:58.785Z,9.91
2023-04-02T12:41:40.106Z,10.48
2023-04-02T12:43:21.402Z,10.27
2023-04-02T12:45:02.854Z,10.24
2023-04-02T12:46:44.250Z,10.59
2023-04-02T12:48:25.545Z,10.74
2023-04-02T12:50:07.009Z,10.74
2023-04-02T12:51:48.418Z,10.87
2023-04-02T12:53:29.873Z,10.46
2023-04-02T12:55:11.200Z,10.57
2023-04-02T12:56:52.552Z,10.70
2023-04-02T12:58:34.123Z,11.01
2023-04-02T13:00:15.685Z,11.11
2023-04-02T13:01:57.094Z,10.83
2023-04-02T13:03:38.644Z,10.92
2023-04-02T13:05:19.962Z,10.94
2023-04-02T13:07:01.265Z,10.86
2023-04-02T13:08:42.601Z,10.46
2023-04-02T13:10:24.079Z,10.23
2023-04-02T13:12:05.370Z,10.05
2023-04-02T13:13:46.651Z,10.21
2023-04-02T13:15:28.430Z,10.05
2023-04-02T13:17:09.822Z,10.16
2023-04-02T13:18:51.205Z,10.30
2023-04-02T13:20:33.039Z,10.77
2023-04-02T13:22:14.564Z,10.77
2023-04-02T13:23:55.896Z,10.86
2023-04-02T13:25:37.220Z,10.50
2023-04-02T13:27:19.582Z,10.14
2023-04-02T13:29:01.002Z,9.90
2023-04-02T13:30:42.327Z,9.93
2023-04-02T13:32:23.628Z,9.99
2023-04-02T13:34:05.103Z,9.96
2023-04-02T13:35:46.423Z,10.51
2023-04-02T13:37:27.827Z,10.59
2023-04-02T13:39:09.210Z,10.59
2023-04-02T13:40:50.489Z,11.27
2023-04-02T13:42:31.868Z,11.12
2023-04-02T13:44:13.221Z,11.19
2023-04-02T13:45:54.559Z,11.09
2023-04-02T13:47:36.063Z,11.16
2023-04-02T13:49:17.340Z,11.34
2023-04-02T13:50:58.618Z,11.21
2023-04-02T13:52:39.929Z,11.18
2023-04-02T13:54:21.257Z,10.84
2023-04-02T13:56:02.790Z,10.06
2023-04-02T13:57:44.094Z,9.94
2023-04-02T13:59:25.401Z,9.63
2023-04-02T14:01:06.763Z,9.16
2023-04-02T14:02:48.104Z,8.80
2023-04-02T14:04:29.434Z,8.89
2023-04-02T14:06:10.750Z,8.88
2023-04-02T14:07:52.053Z,8.44
2023-04-02T14:09:33.368Z,8.42
2023-04-02T14:11:14.652Z,9.01
2023-04-02T14:12:55.929Z,9.20
2023-04-02T14:14:37.232Z,8.78
2023-04-02T14:16:18.680Z,9.16
2023-04-02T14:18:00.058Z,9.00
2023-04-02T14:19:41.333Z,9.28
2023-04-02T14:21:22.669Z,9.25
2023-04-02T14:23:03.999Z,8.83
2023-04-02T14:24:45.309Z,9.06
2023-04-02T14:26:26.758Z,9.23
2023-04-02T14:28:08.141Z,9.34
2023-04-02T14:29:49.540Z,9.17
2023-04-02T14:31:30.914Z,9.23
2023-04-02T14:33:12.338Z,9.54
2023-04-02T14:34:53.643Z,9.50
2023-04-02T14:36:34.955Z,9.60
2023-04-02T14:38:16.263Z,9.57
2023-04-02T14:39:57.554Z,9.81
2023-04-02T14:41:38.879Z,9.56
2023-04-02T14:43:20.176Z,9.98
2023-04-02T14:45:01.504Z,9.63
2023-04-02T14:46:42.913Z,9.36
2023-04-02T14:48:24.397Z,9.39
2023-04-02T14:50:06.371Z,9.11
2023-04-02T14:51:47.982Z,9.43
2023-04-02T14:53:29.507Z,9.88
2023-04-02T14:55:10.989Z,9.03
2023-04-02T14:56:52.321Z,9.04
2023-04-02T14:58:33.682Z,9.11
2023-04-02T15:00:14.993Z,8.83
2023-04-02T15:01:56.347Z,9.57
2023-04-02T15:03:37.892Z,9.91
2023-04-02T15:05:19.421Z,9.76
2023-04-02T15:07:00.697Z,10.02
2023-04-02T15:08:41.984Z,10.07
2023-04-02T15:10:23.301Z,10.27
2023-04-02T15:12:05.200Z,10.03
2023-04-02T15:13:46.672Z,10.29
2023-04-02T15:15:38.929Z,10.48
2023-04-02T15:17:21.065Z,10.20
2023-04-02T15:19:02.362Z,10.54
2023-04-02T15:20:43.654Z,10.52
2023-04-02T15:22:24.927Z,10.66
2023-04-02T15:24:06.215Z,10.46
2023-04-02T15:25:47.507Z,10.51
2023-04-02T15:27:28.833Z,10.52
2023-04-02T15:29:18.916Z,9.80
2023-04-02T15:31:07.519Z,9.67
2023-04-02T15:32:48.942Z,9.47
2023-04-02T15:34:30.293Z,8.77
2023-04-02T15:36:11.622Z,8.09
2023-04-02T15:37:52.924Z,7.32
2023-04-02T15:39:34.256Z,5.96
2023-04-02T15:41:15.571Z,5.35
2023-04-02T15:42:56.880Z,6.19
2023-04-02T15:44:38.206Z,6.61
2023-04-02T15:46:19.577Z,6.75
2023-04-02T15:48:01.639Z,5.32
2023-04-02T15:49:43.546Z,5.68
2023-04-02T15:51:24.892Z,5.79
2023-04-02T15:53:06.169Z,6.37
2023-04-02T15:54:48.666Z,5.36
2023-04-02T15:56:30.033Z,5.80
2023-04-02T15:58:11.316Z,6.03
2023-04-02T15:59:52.613Z,5.90
2023-04-02T16:01:34.195Z,5.66
2023-04-02T16:03:15.841Z,5.60
2023-04-02T16:04:57.147Z,5.40
2023-04-02T16:06:38.468Z,5.54
2023-04-02T16:08:19.814Z,4.86
2023-04-02T16:10:01.156Z,4.18
2023-04-02T16:11:42.438Z,3.93
2023-04-02T16:13:24.270Z,3.73
2023-04-02T16:15:05.620Z,3.94
2023-04-02T16:16:46.960Z,4.64
2023-04-02T16:18:28.274Z,5.31
2023-04-02T16:20:09.704Z,5.27
2023-04-02T16:21:51.029Z,5.77
2023-04-02T16:23:32.303Z,5.70
2023-04-02T16:25:13.596Z,5.87
2023-04-02T16:26:54.918Z,5.96
2023-04-02T16:28:36.170Z,6.18
2023-04-02T16:30:17.500Z,6.32
2023-04-02T16:31:58.767Z,5.98
2023-04-02T16:33:40.079Z,5.90
2023-04-02T16:35:41.768Z,5.91
2023-04-02T16:37:22.681Z,5.74
2023-04-02T16:39:03.978Z,5.40
2023-04-02T16:40:49.591Z,5.57
2023-04-02T16:42:38.591Z,5.45
2023-04-02T16:44:19.928Z,5.19
2023-04-02T16:46:01.955Z,5.32
2023-04-02T16:47:43.543Z,5.23
2023-04-02T16:49:24.905Z,4.58
2023-04-02T16:51:06.302Z,4.66
2023-04-02T16:52:47.570Z,4.26
2023-04-02T16:54:28.866Z,4.28
2023-04-02T16:56:10.165Z,4.61
2023-04-02T16:57:51.461Z,4.28
2023-04-02T16:59:33.329Z,4.41
2023-04-02T17:01:14.987Z,4.50
2023-04-02T17:02:56.389Z,4.80
2023-04-02T17:04:37.736Z,4.88
2023-04-02T17:06:19.027Z,5.38
2023-04-02T17:08:00.635Z,5.50
2023-04-02T17:09:42.173Z,5.27
2023-04-02T17:11:23.746Z,5.33
2023-04-02T17:13:05.198Z,5.68
2023-04-02T17:14:46.520Z,6.03
2023-04-02T17:16:27.897Z,6.18
2023-04-02T17:18:09.199Z,6.27
2023-04-02T17:19:50.507Z,6.28
2023-04-02T17:21:31.818Z,6.05
2023-04-02T17:23:13.128Z,6.14
2023-04-02T17:24:54.479Z,6.01
2023-04-02T17:26:35.825Z,5.70
2023-04-02T17:28:17.141Z,5.59
2023-04-02T17:29:58.430Z,4.95
2023-04-02T17:31:39.793Z,4.76
2023-04-02T17:33:21.140Z,4.85
2023-04-02T17:35:02.521Z,4.87
2023-04-02T17:36:44.412Z,4.61
2023-04-02T17:38:26.010Z,4.66
2023-04-02T17:40:07.359Z,4.51
2023-04-02T17:41:48.711Z,4.50
2023-04-02T17:43:30.158Z,4.75
2023-04-02T17:45:11.462Z,5.05
2023-04-02T17:46:52.730Z,4.74
2023-04-02T17:48:34.037Z,4.55
2023-04-02T17:50:15.339Z,4.59
2023-04-02T17:51:56.647Z,4.63
2023-04-02T17:53:37.921Z,5.12
2023-04-02T17:55:19.217Z,5.44
2023-04-02T17:57:00.530Z,5.22
2023-04-02T17:58:41.934Z,5.53
2023-04-02T18:00:23.345Z,5.42
2023-04-02T18:02:04.665Z,5.65
2023-04-02T18:03:45.989Z,5.65
2023-04-02T18:05:27.301Z,5.61
2023-04-02T18:07:08.788Z,5.55
2023-04-02T18:08:50.143Z,5.10
2023-04-02T18:10:31.452Z,5.24
2023-04-02T18:12:12.783Z,5.30
2023-04-02T18:13:54.072Z,5.31
2023-04-02T18:15:35.380Z,5.06
2023-04-02T18:17:16.688Z,5.55
2023-04-02T18:18:58.012Z,5.61
2023-04-02T18:20:41.510Z,5.66
2023-04-02T18:22:22.793Z,5.70
2023-04-02T18:24:04.094Z,5.94
2023-04-02T18:25:45.495Z,6.12
2023-04-02T18:27:26.809Z,6.18
2023-04-02T18:29:08.165Z,6.22
2023-04-02T18:30:49.560Z,5.88
2023-04-02T18:32:30.928Z,5.36
2023-04-02T18:34:12.217Z,5.85
2023-04-02T18:35:53.700Z,6.19
2023-04-02T18:37:35.042Z,6.02
2023-04-02T18:39:16.412Z,5.96
2023-04-02T18:40:57.717Z,5.75
2023-04-02T18:42:39.096Z,5.50
2023-04-02T18:44:20.377Z,5.67
2023-04-02T18:46:01.716Z,5.74
2023-04-02T18:47:43.103Z,5.98
2023-04-02T18:49:24.470Z,6.00
2023-04-02T18:51:07.121Z,5.85
2023-04-02T18:52:48.743Z,5.88
2023-04-02T18:54:30.024Z,5.97
2023-04-02T18:56:12.037Z,5.77
2023-04-02T18:57:53.473Z,5.79
2023-04-02T18:59:34.856Z,5.61
2023-04-02T19:01:16.224Z,5.75
2023-04-02T19:02:57.550Z,5.90
2023-04-02T19:04:38.844Z,5.73
2023-04-02T19:06:20.207Z,6.01
2023-04-02T19:08:01.506Z,6.15
2023-04-02T19:09:42.808Z,6.36
2023-04-02T19:11:24.250Z,6.45
2023-04-02T19:13:05.532Z,6.49
2023-04-02T19:14:46.806Z,6.47
2023-04-02T19:16:28.233Z,6.33
2023-04-02T19:18:09.648Z,6.06
2023-04-02T19:19:50.987Z,6.26
2023-04-02T19:21:32.400Z,6.32
2023-04-02T19:23:13.689Z,6.20
2023-04-02T19:24:55.453Z,5.85
2023-04-02T19:26:37.045Z,5.58
2023-04-02T19:28:18.401Z,5.72
2023-04-02T19:29:59.697Z,5.44
2023-04-02T19:31:41.044Z,5.32
2023-04-02T19:33:22.390Z,5.18
2023-04-02T19:35:03.686Z,4.99
2023-04-02T19:36:45.012Z,4.99
2023-04-02T19:38:26.530Z,5.12
2023-04-02T19:40:07.826Z,5.49
2023-04-02T19:41:49.127Z,5.66
2023-04-02T19:43:30.478Z,5.89
2023-04-02T19:45:11.749Z,6.00
2023-04-02T19:46:53.824Z,6.08
2023-04-02T19:48:35.479Z,5.98
2023-04-02T19:50:17.073Z,5.80
2023-04-02T19:51:58.635Z,5.82
2023-04-02T19:53:40.617Z,5.83
2023-04-02T19:55:22.417Z,5.83
2023-04-02T19:57:05.266Z,5.63
2023-04-02T19:58:46.685Z,5.27
2023-04-02T20:00:27.976Z,5.19
2023-04-02T20:02:09.267Z,5.63
2023-04-02T20:03:50.577Z,5.75
2023-04-02T20:05:31.929Z,5.80
2023-04-02T20:07:13.245Z,5.44
2023-04-02T20:08:54.814Z,5.08
2023-04-02T20:10:36.560Z,4.71
2023-04-02T20:12:17.992Z,4.63
2023-04-02T20:13:59.311Z,4.79
2023-04-02T20:15:40.647Z,5.15
2023-04-02T20:17:21.956Z,5.47
2023-04-02T20:19:03.237Z,5.61
2023-04-02T20:20:44.522Z,5.46
2023-04-02T20:22:25.836Z,5.25
2023-04-02T20:24:07.131Z,4.69
2023-04-02T20:25:48.438Z,4.00
2023-04-02T20:27:29.774Z,3.86
2023-04-02T20:29:11.110Z,4.10
2023-04-02T20:30:52.464Z,3.97
2023-04-02T20:32:35.814Z,4.01
2023-04-02T20:34:18.632Z,3.89
2023-04-02T20:36:00.165Z,4.01
2023-04-02T20:37:41.484Z,4.22
2023-04-02T20:39:22.794Z,4.47
2023-04-02T20:41:04.246Z,4.58
2023-04-02T20:42:45.540Z,4.54
2023-04-02T20:44:26.843Z,4.49
2023-04-02T20:46:10.067Z,4.72
2023-04-02T20:47:52.112Z,5.02
2023-04-02T20:49:33.451Z,5.26
2023-04-02T20:51:16.118Z,5.44
2023-04-02T20:52:57.473Z,5.31
2023-04-02T20:54:38.774Z,5.07
2023-04-02T20:56:20.080Z,4.75
2023-04-02T20:58:01.380Z,4.33
2023-04-02T20:59:43.037Z,4.14
2023-04-02T21:01:24.511Z,4.26
2023-04-02T21:03:05.890Z,4.32
2023-04-02T21:04:47.287Z,4.18
2023-04-02T21:06:28.600Z,3.80
2023-04-02T21:08:09.883Z,3.78
2023-04-02T21:09:51.233Z,3.91
2023-04-02T21:11:32.629Z,4.10
2023-04-02T21:13:13.929Z,4.65
2023-04-02T21:14:55.284Z,4.71
2023-04-02T21:16:36.629Z,4.93
2023-04-02T21:18:17.906Z,4.99
2023-04-02T21:19:59.200Z,4.87
2023-04-02T21:21:40.458Z,4.88
2023-04-02T21:23:21.741Z,4.78
2023-04-02T21:25:03.324Z,4.91
2023-04-02T21:26:44.889Z,4.99
2023-04-02T21:28:26.180Z,5.00
2023-04-02T21:30:08.172Z,4.90
2023-04-02T21:31:49.798Z,4.79
2023-04-02T21:33:31.091Z,4.46
2023-04-02T21:35:12.439Z,4.22
2023-04-02T21:36:53.772Z,4.30
2023-04-02T21:38:35.217Z,4.65
2023-04-02T21:40:16.496Z,4.99
2023-04-02T21:41:57.962Z,5.24
2023-04-02T21:43:39.230Z,5.41
2023-04-02T21:45:20.560Z,5.31
2023-04-02T21:47:01.916Z,5.02
2023-04-02T21:48:43.219Z,4.79
2023-04-02T21:50:24.523Z,4.27
2023-04-02T21:52:05.853Z,4.10
2023-04-02T21:53:47.188Z,3.84
2023-04-02T21:55:28.514Z,3.73
2023-04-02T21:57:09.895Z,3.70
2023-04-02T21:58:51.228Z,3.71
2023-04-02T22:00:32.534Z,3.54
2023-04-02T22:02:13.842Z,3.38
2023-04-02T22:03:55.267Z,3.45
2023-04-02T22:05:37.055Z,3.80
2023-04-02T22:07:18.800Z,4.17
2023-04-02T22:09:00.422Z,4.33
2023-04-02T22:10:41.705Z,4.46
2023-04-02T22:12:23.233Z,4.62
2023-04-02T22:14:04.708Z,4.75
2023-04-02T22:15:46.011Z,4.72
2023-04-02T22:17:27.445Z,4.87
2023-04-02T22:19:08.761Z,5.08
2023-04-02T22:20:50.066Z,4.90